createdAt,value
2019-03-03T00:02:14.358Z,2.50
2019-03-03T00:04:43.986Z,2.27
2019-03-03T00:07:16.009Z,2.47
2019-03-03T00:09:45.878Z,2.60
2019-03-03T00:12:15.459Z,2.20
2019-03-03T00:14:45.052Z,2.70
2019-03-03T00:17:14.913Z,2.47
2019-03-03T00:19:44.505Z,2.80
2019-03-03T00:22:14.058Z,2.47
2019-03-03T00:24:43.906Z,2.23
2019-03-03T00:27:13.465Z,2.67
2019-03-03T00:29:43.271Z,2.60
2019-03-03T00:32:13.146Z,2.43
2019-03-03T00:34:42.704Z,2.80
2019-03-03T00:37:30.890Z,2.13
2019-03-03T00:40:22.955Z,3.50
2019-03-03T00:43:04.317Z,2.83
2019-03-03T00:45:53.165Z,2.97
2019-03-03T00:48:29.002Z,2.80
2019-03-03T00:51:16.287Z,2.87
2019-03-03T00:54:03.264Z,3.20
2019-03-03T00:56:38.273Z,3.47
2019-03-03T00:59:36.634Z,2.50
2019-03-03T01:02:34.598Z,3.03
2019-03-03T01:05:35.201Z,3.20
2019-03-03T01:08:27.937Z,3.03
2019-03-03T01:11:16.429Z,4.10
2019-03-03T01:14:20.076Z,2.97
2019-03-03T01:17:20.450Z,3.30
2019-03-03T01:20:24.410Z,3.07
2019-03-03T01:23:15.910Z,4.60
2019-03-03T01:25:45.755Z,3.33
2019-03-03T01:28:15.310Z,3.00
2019-03-03T01:30:44.242Z,4.53
2019-03-03T01:33:14.099Z,3.67
2019-03-03T01:35:43.647Z,3.30
2019-03-03T01:38:12.573Z,3.17
2019-03-03T01:40:42.397Z,3.37
2019-03-03T01:43:11.337Z,3.73
2019-03-03T01:45:40.905Z,3.93
2019-03-03T01:48:10.764Z,3.93
2019-03-03T01:50:40.354Z,4.73
2019-03-03T01:53:09.287Z,3.40
2019-03-03T01:55:39.114Z,4.07
2019-03-03T01:58:08.012Z,3.67
2019-03-03T02:00:37.807Z,3.60
2019-03-03T02:03:07.006Z,4.30
2019-03-03T02:05:36.562Z,4.10
2019-03-03T02:08:06.632Z,5.73
2019-03-03T02:10:36.456Z,4.67
2019-03-03T02:13:07.812Z,5.20
2019-03-03T02:15:36.725Z,4.73
2019-03-03T02:18:06.006Z,4.93
2019-03-03T02:20:35.658Z,3.80
2019-03-03T02:23:05.562Z,5.00
2019-03-03T02:25:35.402Z,4.23
2019-03-03T02:28:05.162Z,4.60
2019-03-03T02:30:34.839Z,3.80
2019-03-03T02:33:05.252Z,3.47
2019-03-03T02:35:34.813Z,4.17
2019-03-03T02:38:05.874Z,3.13
2019-03-03T02:40:35.709Z,3.00
2019-03-03T02:43:04.613Z,4.33
2019-03-03T02:45:34.188Z,4.37
2019-03-03T02:48:03.583Z,5.57
2019-03-03T02:50:33.146Z,4.37
2019-03-03T02:53:02.061Z,3.23
2019-03-03T02:55:31.878Z,3.30
2019-03-03T02:58:01.452Z,4.50
2019-03-03T03:00:31.020Z,3.43
2019-03-03T03:03:02.386Z,3.00
2019-03-03T03:05:53.887Z,2.80
2019-03-03T03:08:27.282Z,3.07
2019-03-03T03:11:18.766Z,5.07
2019-03-03T03:14:19.635Z,3.50
2019-03-03T03:17:05.260Z,2.80
2019-03-03T03:19:45.486Z,3.50
2019-03-03T03:22:36.814Z,2.90
2019-03-03T03:25:12.385Z,2.83
2019-03-03T03:27:53.398Z,3.10
2019-03-03T03:30:53.877Z,3.43
2019-03-03T03:33:57.063Z,3.30
2019-03-03T03:36:40.099Z,2.97
2019-03-03T03:39:34.475Z,3.40
2019-03-03T03:42:13.018Z,2.90
2019-03-03T03:44:53.123Z,2.77
2019-03-03T03:47:31.872Z,3.40
2019-03-03T03:50:23.473Z,2.97
2019-03-03T03:53:04.342Z,2.93
2019-03-03T03:56:06.161Z,3.20
2019-03-03T03:59:06.906Z,3.13
2019-03-03T04:01:53.820Z,3.50
2019-03-03T04:04:39.668Z,2.80
2019-03-03T04:07:28.425Z,3.23
2019-03-03T04:10:15.764Z,3.03
2019-03-03T04:12:59.693Z,3.10
2019-03-03T04:15:43.790Z,2.73
2019-03-03T04:18:41.432Z,2.70
2019-03-03T04:21:29.608Z,3.37
2019-03-03T04:24:23.701Z,3.20
2019-03-03T04:27:15.223Z,2.50
2019-03-03T04:30:03.749Z,2.87
2019-03-03T04:32:43.499Z,2.70
2019-03-03T04:35:34.825Z,2.70
2019-03-03T04:38:26.674Z,3.20
2019-03-03T04:41:18.270Z,3.07
2019-03-03T04:44:02.112Z,2.90
2019-03-03T04:46:41.602Z,3.10
2019-03-03T04:49:29.106Z,2.90
2019-03-03T04:52:10.458Z,2.93
2019-03-03T04:55:05.110Z,3.07
2019-03-03T04:57:59.190Z,3.27
2019-03-03T05:00:46.566Z,2.90
2019-03-03T05:03:39.058Z,2.50
2019-03-03T05:06:30.479Z,2.97
2019-03-03T05:09:09.406Z,2.80
2019-03-03T05:12:49.574Z,3.23
2019-03-03T05:15:37.798Z,3.13
2019-03-03T05:18:16.087Z,2.97
2019-03-03T05:20:47.246Z,2.93
2019-03-03T05:23:17.057Z,3.33
2019-03-03T05:25:46.613Z,3.23
2019-03-03T05:28:16.194Z,3.27
2019-03-03T05:30:45.465Z,3.33
2019-03-03T05:33:15.248Z,2.97
2019-03-03T05:35:44.798Z,3.47
2019-03-03T05:38:14.627Z,3.20
2019-03-03T05:40:44.166Z,3.67
2019-03-03T05:43:13.747Z,3.57
2019-03-03T05:45:43.576Z,3.30
2019-03-03T05:48:13.106Z,3.87
2019-03-03T05:50:42.692Z,4.00
2019-03-03T05:53:12.849Z,3.27
2019-03-03T05:55:42.405Z,3.87
2019-03-03T05:58:11.991Z,3.47
2019-03-03T06:00:41.530Z,3.53
2019-03-03T06:03:11.107Z,3.50
2019-03-03T06:05:40.954Z,3.80
2019-03-03T06:08:11.362Z,3.43
2019-03-03T06:10:40.920Z,3.30
2019-03-03T06:13:10.766Z,4.50
2019-03-03T06:15:40.318Z,3.30
2019-03-03T06:18:09.875Z,3.10
2019-03-03T06:20:39.757Z,3.33
2019-03-03T06:23:08.653Z,3.40
2019-03-03T06:25:38.202Z,3.63
2019-03-03T06:28:07.391Z,3.50
2019-03-03T06:30:36.959Z,3.40
2019-03-03T06:33:08.509Z,3.23
2019-03-03T06:35:38.370Z,3.63
2019-03-03T06:38:07.921Z,3.10
2019-03-03T06:40:36.809Z,3.83
2019-03-03T06:43:07.585Z,3.30
2019-03-03T06:45:37.143Z,3.23
2019-03-03T06:48:07.090Z,3.57
2019-03-03T06:50:36.970Z,3.10
2019-03-03T06:53:05.958Z,3.90
2019-03-03T06:55:35.533Z,3.20
2019-03-03T06:58:06.401Z,3.83
2019-03-03T07:00:35.301Z,3.50
2019-03-03T07:03:05.896Z,4.77
2019-03-03T07:05:35.113Z,3.33
2019-03-03T07:08:05.003Z,3.70
2019-03-03T07:10:35.430Z,3.60
2019-03-03T07:13:05.927Z,3.27
2019-03-03T07:15:35.506Z,3.03
2019-03-03T07:18:05.172Z,4.07
2019-03-03T07:20:35.076Z,2.93
2019-03-03T07:23:06.947Z,3.10
2019-03-03T07:25:36.497Z,3.20
2019-03-03T07:28:07.754Z,3.83
2019-03-03T07:30:37.351Z,2.73
2019-03-03T07:33:18.061Z,2.90
2019-03-03T07:35:47.696Z,2.53
2019-03-03T07:38:18.496Z,2.50
2019-03-03T07:40:48.101Z,2.30
2019-03-03T07:43:18.016Z,2.10
2019-03-03T07:45:47.709Z,2.10
2019-03-03T07:48:16.597Z,2.53
2019-03-03T07:50:46.439Z,2.73
2019-03-03T07:53:15.337Z,3.13
2019-03-03T07:55:45.034Z,2.20
2019-03-03T07:58:14.399Z,2.03
2019-03-03T08:00:44.175Z,1.77
2019-03-03T08:03:14.397Z,2.17
2019-03-03T08:05:44.407Z,2.27
2019-03-03T08:08:14.015Z,2.20
2019-03-03T08:10:43.042Z,2.17
2019-03-03T08:13:13.042Z,2.23
2019-03-03T08:15:42.597Z,2.00
2019-03-03T08:18:12.227Z,1.73
2019-03-03T08:20:41.397Z,2.10
2019-03-03T08:23:10.970Z,2.10
2019-03-03T08:25:39.911Z,1.90
2019-03-03T08:28:09.070Z,2.50
2019-03-03T08:30:38.613Z,2.20
2019-03-03T08:33:08.193Z,1.87
2019-03-03T08:35:38.035Z,1.93
2019-03-03T08:38:07.597Z,2.73
2019-03-03T08:40:37.201Z,1.77
2019-03-03T08:43:12.944Z,2.13
2019-03-03T08:46:19.613Z,2.40
2019-03-03T08:48:55.669Z,2.80
2019-03-03T08:51:49.539Z,2.93
2019-03-03T08:54:36.873Z,2.60
2019-03-03T08:57:25.375Z,2.40
2019-03-03T09:00:19.713Z,1.50
2019-03-03T09:03:01.213Z,2.07
2019-03-03T09:05:58.190Z,2.10
2019-03-03T09:08:40.041Z,2.10
2019-03-03T09:11:25.654Z,2.20
2019-03-03T09:14:32.918Z,1.73
2019-03-03T09:17:19.742Z,2.00
2019-03-03T09:20:05.986Z,2.47
2019-03-03T09:23:09.933Z,1.93
2019-03-03T09:25:57.649Z,2.00
2019-03-03T09:28:46.381Z,1.70
2019-03-03T09:31:53.467Z,2.30
2019-03-03T09:34:54.042Z,1.40
2019-03-03T09:37:32.093Z,1.60
2019-03-03T09:40:18.616Z,1.50
2019-03-03T09:43:07.127Z,1.40
2019-03-03T09:46:04.902Z,1.60
2019-03-03T09:48:58.913Z,1.33
2019-03-03T09:51:53.836Z,1.40
2019-03-03T09:54:37.461Z,1.20
2019-03-03T09:57:24.093Z,1.30
2019-03-03T10:00:15.436Z,1.13
2019-03-03T10:03:05.354Z,1.10
2019-03-03T10:06:08.513Z,1.00
2019-03-03T10:09:15.203Z,1.10
2019-03-03T10:11:58.427Z,1.00
2019-03-03T10:15:04.866Z,0.90
2019-03-03T10:17:57.359Z,0.60
2019-03-03T10:20:39.378Z,0.70
2019-03-03T10:23:18.635Z,1.03
2019-03-03T10:26:10.373Z,0.90
2019-03-03T10:29:02.035Z,0.77
2019-03-03T10:31:56.402Z,0.60
2019-03-03T10:34:50.466Z,0.63
2019-03-03T10:37:37.240Z,0.83
2019-03-03T10:40:33.281Z,1.10
2019-03-03T10:43:32.478Z,0.80
2019-03-03T10:46:20.575Z,0.83
2019-03-03T10:48:58.842Z,1.30
2019-03-03T10:51:45.807Z,0.93
2019-03-03T10:54:34.545Z,1.20
2019-03-03T10:57:15.251Z,1.00
2019-03-03T11:00:07.176Z,2.07
2019-03-03T11:02:53.594Z,2.23
2019-03-03T11:05:35.096Z,1.37
2019-03-03T11:08:26.439Z,1.00
2019-03-03T11:11:22.355Z,1.40
2019-03-03T11:14:06.543Z,1.30
2019-03-03T11:16:55.638Z,1.20
2019-03-03T11:19:42.269Z,1.00
2019-03-03T11:22:24.091Z,2.80
2019-03-03T11:25:12.610Z,3.20
2019-03-03T11:28:02.411Z,1.00
2019-03-03T11:30:39.444Z,1.30
2019-03-03T11:33:22.429Z,1.17
2019-03-03T11:36:23.003Z,1.47
2019-03-03T11:39:11.766Z,1.60
2019-03-03T11:41:47.483Z,1.30
2019-03-03T11:44:42.445Z,1.20
2019-03-03T11:47:26.960Z,1.13
2019-03-03T11:50:03.236Z,1.03
2019-03-03T11:52:58.478Z,1.77
2019-03-03T11:55:59.183Z,1.07
2019-03-03T11:58:42.959Z,1.53
2019-03-03T12:01:32.210Z,1.30
2019-03-03T12:04:19.095Z,0.97
2019-03-03T12:07:13.681Z,1.03
2019-03-03T12:10:02.193Z,1.00
2019-03-03T12:12:52.770Z,1.10
2019-03-03T12:15:35.982Z,1.30
2019-03-03T12:18:29.513Z,1.20
2019-03-03T12:21:19.226Z,1.20
2019-03-03T12:24:03.033Z,1.00
2019-03-03T12:26:57.309Z,1.40
2019-03-03T12:29:33.467Z,1.97
2019-03-03T12:32:27.765Z,1.80
2019-03-03T12:35:08.581Z,1.50
2019-03-03T12:37:55.617Z,1.43
2019-03-03T12:40:41.206Z,1.63
2019-03-03T12:43:19.154Z,1.60
2019-03-03T12:46:06.581Z,1.50
2019-03-03T12:48:53.562Z,2.27
2019-03-03T12:51:48.070Z,1.90
2019-03-03T12:54:33.516Z,2.23
2019-03-03T12:57:24.726Z,1.93
2019-03-03T13:00:05.023Z,1.80
2019-03-03T13:02:52.207Z,1.57
2019-03-03T13:05:52.475Z,2.10
2019-03-03T13:08:41.600Z,2.10
2019-03-03T13:11:28.223Z,1.80
2019-03-03T13:14:15.565Z,1.50
2019-03-03T13:16:53.196Z,2.20
2019-03-03T13:19:33.378Z,2.20
2019-03-03T13:22:25.775Z,1.87
2019-03-03T13:25:17.338Z,1.67
2019-03-03T13:27:58.596Z,1.90
2019-03-03T13:30:41.524Z,2.10
2019-03-03T13:33:32.835Z,1.83
2019-03-03T13:36:20.942Z,2.10
2019-03-03T13:39:08.113Z,1.90
2019-03-03T13:42:09.034Z,1.53
2019-03-03T13:44:38.632Z,2.17
2019-03-03T13:47:07.817Z,2.10
2019-03-03T13:49:37.493Z,2.30
2019-03-03T13:52:07.659Z,2.23
2019-03-03T13:54:43.790Z,2.77
2019-03-03T13:57:13.830Z,1.90
2019-03-03T13:59:43.802Z,2.47
2019-03-03T14:02:14.638Z,2.50
2019-03-03T14:04:43.666Z,3.00
2019-03-03T14:07:13.523Z,2.80
2019-03-03T14:09:43.153Z,3.10
2019-03-03T14:12:12.837Z,2.67
2019-03-03T14:14:42.885Z,3.17
2019-03-03T14:17:12.507Z,2.87
2019-03-03T14:19:42.161Z,3.00
2019-03-03T14:22:12.062Z,2.70
2019-03-03T14:24:42.549Z,3.13
2019-03-03T14:27:11.584Z,2.50
2019-03-03T14:29:41.460Z,2.90
2019-03-03T14:32:11.080Z,2.90
2019-03-03T14:34:40.702Z,3.50
2019-03-03T14:37:09.933Z,3.17
2019-03-03T14:39:39.515Z,3.30
2019-03-03T14:42:09.115Z,3.70
2019-03-03T14:44:39.250Z,3.47
2019-03-03T14:47:08.839Z,3.40
2019-03-03T14:49:38.485Z,2.90
2019-03-03T14:52:07.821Z,3.23
2019-03-03T14:54:37.405Z,3.90
2019-03-03T14:57:07.339Z,3.83
2019-03-03T14:59:37.242Z,3.83
2019-03-03T15:02:06.883Z,4.00
2019-03-03T15:04:36.510Z,3.83
2019-03-03T15:07:06.694Z,3.57
2019-03-03T15:09:36.294Z,3.20
2019-03-03T15:12:06.923Z,4.07
2019-03-03T15:14:37.204Z,4.03
2019-03-03T15:17:07.374Z,3.10
2019-03-03T15:19:36.367Z,3.80
2019-03-03T15:22:08.710Z,3.90
2019-03-03T15:24:38.337Z,5.07
2019-03-03T15:27:08.878Z,4.17
2019-03-03T15:29:38.459Z,3.37
2019-03-03T15:32:08.157Z,4.30
2019-03-03T15:34:37.081Z,4.70
2019-03-03T15:37:07.907Z,13.37
2019-03-03T15:39:37.477Z,5.83
2019-03-03T15:42:08.647Z,5.53
2019-03-03T15:44:38.244Z,3.50
2019-03-03T15:47:07.885Z,3.27
2019-03-03T15:49:37.841Z,3.60
2019-03-03T15:52:06.945Z,3.40
2019-03-03T15:54:36.778Z,3.17
2019-03-03T15:57:08.144Z,3.73
2019-03-03T15:59:41.918Z,3.10
2019-03-03T16:02:12.817Z,3.97
2019-03-03T16:04:42.666Z,3.37
2019-03-03T16:07:11.586Z,3.50
2019-03-03T16:09:41.689Z,3.87
2019-03-03T16:12:10.817Z,3.60
2019-03-03T16:14:40.864Z,4.07
2019-03-03T16:17:10.950Z,8.73
2019-03-03T16:19:40.573Z,5.27
2019-03-03T16:22:10.483Z,3.43
2019-03-03T16:24:39.893Z,3.60
2019-03-03T16:27:09.511Z,4.10
2019-03-03T16:29:42.145Z,3.47
2019-03-03T16:32:12.093Z,4.67
2019-03-03T16:34:43.461Z,3.50
2019-03-03T16:37:13.115Z,3.77
2019-03-03T16:39:43.011Z,3.10
2019-03-03T16:42:12.670Z,3.07
2019-03-03T16:44:41.574Z,3.30
2019-03-03T16:47:11.464Z,3.10
2019-03-03T16:49:41.077Z,3.47
2019-03-03T16:52:11.654Z,3.20
2019-03-03T16:54:41.586Z,4.00
2019-03-03T16:57:10.498Z,3.90
2019-03-03T16:59:39.498Z,4.17
2019-03-03T17:02:09.496Z,3.53
2019-03-03T17:04:39.070Z,3.63
2019-03-03T17:07:08.163Z,3.50
2019-03-03T17:09:38.245Z,4.50
2019-03-03T17:12:07.925Z,3.80
2019-03-03T17:14:37.674Z,4.07
2019-03-03T17:17:11.526Z,3.83
2019-03-03T17:19:41.945Z,3.97
2019-03-03T17:22:11.530Z,3.17
2019-03-03T17:24:41.788Z,4.47
2019-03-03T17:27:11.366Z,4.73
2019-03-03T17:29:40.931Z,4.80
2019-03-03T17:32:10.968Z,3.93
2019-03-03T17:34:40.598Z,4.37
2019-03-03T17:37:10.243Z,3.70
2019-03-03T17:39:40.145Z,3.80
2019-03-03T17:42:09.754Z,4.13
2019-03-03T17:44:39.338Z,3.97
2019-03-03T17:47:10.285Z,3.77
2019-03-03T17:49:39.887Z,4.27
2019-03-03T17:52:09.702Z,4.03
2019-03-03T17:54:39.634Z,4.60
2019-03-03T17:57:09.215Z,4.37
2019-03-03T17:59:38.784Z,3.93
2019-03-03T18:02:08.774Z,4.07
2019-03-03T18:04:37.672Z,3.93
2019-03-03T18:07:07.562Z,4.17
2019-03-03T18:09:38.852Z,4.63
2019-03-03T18:12:07.817Z,4.70
2019-03-03T18:14:37.403Z,4.33
2019-03-03T18:17:07.618Z,4.80
2019-03-03T18:19:37.238Z,4.87
2019-03-03T18:22:06.977Z,4.70
2019-03-03T18:24:36.854Z,4.70
2019-03-03T18:27:07.689Z,4.57
2019-03-03T18:29:36.589Z,4.57
2019-03-03T18:32:06.943Z,4.77
2019-03-03T18:34:37.410Z,3.87
2019-03-03T18:37:07.495Z,4.90
2019-03-03T18:39:40.072Z,4.73
2019-03-03T18:42:09.685Z,4.57
2019-03-03T18:44:39.267Z,4.77
2019-03-03T18:47:09.281Z,4.43
2019-03-03T18:49:39.001Z,4.13
2019-03-03T18:52:07.946Z,4.70
2019-03-03T18:54:38.972Z,5.07
2019-03-03T18:57:08.704Z,4.60
2019-03-03T18:59:38.271Z,4.97
2019-03-03T19:02:07.712Z,4.03
2019-03-03T19:04:37.317Z,5.00
2019-03-03T19:07:09.044Z,5.10
2019-03-03T19:09:44.988Z,5.43
2019-03-03T19:12:14.757Z,4.60
2019-03-03T19:14:43.641Z,4.37
2019-03-03T19:17:12.838Z,3.90
2019-03-03T19:19:42.406Z,4.37
2019-03-03T19:22:14.942Z,3.90
2019-03-03T19:24:44.888Z,3.97
2019-03-03T19:27:14.605Z,4.40
2019-03-03T19:29:43.523Z,4.70
2019-03-03T19:32:13.470Z,3.73
2019-03-03T19:34:43.059Z,3.83
2019-03-03T19:37:12.865Z,3.30
2019-03-03T19:39:42.905Z,3.83
2019-03-03T19:42:12.506Z,3.60
2019-03-03T19:44:42.063Z,4.47
2019-03-03T19:47:11.943Z,4.00
2019-03-03T19:49:41.511Z,4.17
2019-03-03T19:52:10.414Z,4.20
2019-03-03T19:54:40.290Z,4.17
2019-03-03T19:57:09.855Z,3.97
2019-03-03T19:59:39.416Z,3.37
2019-03-03T20:02:10.727Z,3.97
2019-03-03T20:04:39.622Z,3.70
2019-03-03T20:07:09.198Z,3.43
2019-03-03T20:09:39.162Z,3.90
2019-03-03T20:12:08.566Z,3.70
2019-03-03T20:14:38.238Z,3.30
2019-03-03T20:17:08.800Z,3.40
2019-03-03T20:19:37.724Z,4.23
2019-03-03T20:22:07.732Z,3.20
2019-03-03T20:24:37.614Z,3.37
2019-03-03T20:27:11.971Z,3.80
2019-03-03T20:29:43.428Z,3.70
2019-03-03T20:32:13.305Z,4.00
2019-03-03T20:34:42.895Z,3.70
2019-03-03T20:37:12.191Z,3.37
2019-03-03T20:39:42.956Z,3.80
2019-03-03T20:42:14.131Z,3.93
2019-03-03T20:44:45.998Z,4.53
2019-03-03T20:47:15.875Z,3.77
2019-03-03T20:49:45.438Z,3.97
2019-03-03T20:52:15.051Z,4.10
2019-03-03T20:54:44.905Z,4.20
2019-03-03T20:57:14.492Z,3.53
2019-03-03T20:59:44.081Z,4.20
2019-03-03T21:02:13.943Z,3.80
2019-03-03T21:04:43.495Z,3.53
2019-03-03T21:07:13.164Z,4.10
2019-03-03T21:09:42.775Z,4.17
2019-03-03T21:12:12.604Z,3.90
2019-03-03T21:14:42.550Z,4.10
2019-03-03T21:17:11.462Z,3.57
2019-03-03T21:19:41.024Z,3.97
2019-03-03T21:22:10.242Z,3.40
2019-03-03T21:24:42.829Z,4.10
2019-03-03T21:27:12.437Z,3.97
2019-03-03T21:29:43.503Z,3.80
2019-03-03T21:32:13.065Z,3.97
2019-03-03T21:34:42.915Z,3.43
2019-03-03T21:37:12.528Z,4.63
2019-03-03T21:39:42.103Z,4.20
2019-03-03T21:42:13.366Z,3.50
2019-03-03T21:44:42.971Z,3.97
2019-03-03T21:47:12.582Z,3.77
2019-03-03T21:49:42.441Z,4.13
2019-03-03T21:52:12.106Z,4.20
2019-03-03T21:54:40.996Z,4.20
2019-03-03T21:57:11.828Z,4.90
2019-03-03T21:59:44.354Z,7.20
2019-03-03T22:02:14.241Z,6.57
2019-03-03T22:04:44.106Z,5.30
2019-03-03T22:07:13.935Z,9.40
2019-03-03T22:09:43.469Z,11.40
2019-03-03T22:12:13.365Z,20.63
2019-03-03T22:14:42.990Z,11.77
2019-03-03T22:17:12.561Z,3.67
2019-03-03T22:19:42.434Z,3.27
2019-03-03T22:22:12.129Z,3.23
2019-03-03T22:24:41.704Z,3.37
2019-03-03T22:27:12.254Z,3.27
2019-03-03T22:29:41.863Z,3.30
2019-03-03T22:32:12.935Z,3.20
2019-03-03T22:34:42.794Z,2.90
2019-03-03T22:37:12.438Z,3.23
2019-03-03T22:39:42.011Z,3.13
2019-03-03T22:42:11.360Z,3.03
2019-03-03T22:44:41.831Z,3.07
2019-03-03T22:47:12.539Z,2.83
2019-03-03T22:49:42.417Z,3.57
2019-03-03T22:52:12.138Z,3.23
2019-03-03T22:54:41.788Z,3.17
2019-03-03T22:57:11.686Z,4.00
2019-03-03T22:59:41.284Z,3.17
2019-03-03T23:02:10.883Z,3.37
2019-03-03T23:05:04.983Z,3.60
2019-03-03T23:07:50.975Z,3.53
2019-03-03T23:10:57.546Z,3.80
2019-03-03T23:14:13.778Z,3.43
2019-03-03T23:17:10.979Z,4.03
2019-03-03T23:19:53.694Z,3.30
2019-03-03T23:22:57.455Z,3.33
2019-03-03T23:25:48.670Z,3.40
2019-03-03T23:28:18.982Z,3.17
2019-03-03T23:30:47.898Z,3.00
2019-03-03T23:33:18.082Z,3.40
2019-03-03T23:35:47.978Z,3.23
2019-03-03T23:38:17.665Z,3.10
2019-03-03T23:40:47.257Z,3.20
2019-03-03T23:43:16.446Z,2.87
2019-03-03T23:45:46.188Z,2.80
2019-03-03T23:48:16.241Z,3.43
2019-03-03T23:50:46.734Z,2.93
2019-03-03T23:53:16.269Z,2.60
2019-03-03T23:55:45.262Z,3.57
2019-03-03T23:58:16.997Z,3.10
